Time;durP1;ratioP1;P1;durP2;ratioP2;P2;SDS_P1;SDS_P2;PMS_P1;PMS_P2;Temp;Humidity;BMP_temperature;BMP_pressure;BME280_temperature;BME280_humidity;BME280_pressure;Samples;Min_cycle;Max_cycle;Signal;HPM_P1;HPM_P2
2022/04/01 00:00:42;;;;;;;17.70;9.40;;;0.90;99.90;;;;;;5076447;28;20058;-82
2022/04/01 00:03:09;;;;;;;15.57;10.07;;;0.90;99.90;;;;;;5044224;28;20044;-81
2022/04/01 00:05:38;;;;;;;15.90;9.90;;;0.90;99.90;;;;;;5078366;28;20024;-82
2022/04/01 00:08:05;;;;;;;15.00;9.87;;;0.90;99.90;;;;;;5092204;28;20062;-83
2022/04/01 00:10:31;;;;;;;15.03;9.03;;;0.90;99.90;;;;;;5063269;28;20058;-81
2022/04/01 00:13:01;;;;;;;13.43;7.63;;;0.90;99.90;;;;;;5085095;27;20035;-81
2022/04/01 00:15:27;;;;;;;16.30;10.43;;;0.90;99.90;;;;;;5112353;27;20471;-82
2022/04/01 00:17:54;;;;;;;13.70;9.80;;;0.90;99.90;;;;;;5115428;27;20032;-81
2022/04/01 00:20:20;;;;;;;15.97;10.10;;;0.90;99.90;;;;;;5047149;28;20040;-82
2022/04/01 00:22:48;;;;;;;15.73;9.47;;;0.90;99.90;;;;;;5081007;27;20070;-81
2022/04/01 00:25:15;;;;;;;12.57;8.40;;;0.90;99.90;;;;;;5096996;28;20035;-81
2022/04/01 00:27:42;;;;;;;15.27;9.87;;;0.90;99.90;;;;;;5095984;28;20109;-81
2022/04/01 00:30:09;;;;;;;14.53;10.00;;;0.90;99.90;;;;;;5047992;27;20032;-80
2022/04/01 00:32:36;;;;;;;14.73;9.73;;;0.90;99.90;;;;;;5077294;28;20040;-81
2022/04/01 00:35:06;;;;;;;13.10;9.10;;;0.90;99.90;;;;;;5083373;27;20027;-80
2022/04/01 00:37:33;;;;;;;13.33;9.13;;;0.90;99.90;;;;;;5080325;27;20044;-81
2022/04/01 00:40:01;;;;;;;14.07;9.90;;;0.90;99.90;;;;;;5096267;28;20495;-81
2022/04/01 00:42:52;;;;;;;16.50;11.67;;;0.80;99.90;;;;;;5096208;28;20478;-81
2022/04/01 00:45:21;;;;;;;18.53;12.37;;;0.80;99.90;;;;;;5077636;28;20039;-81
2022/04/01 00:47:54;;;;;;;15.47;9.57;;;0.90;99.90;;;;;;5077628;28;20031;-82
2022/04/01 00:50:37;;;;;;;18.20;10.87;;;0.80;99.90;;;;;;5079307;28;20043;-81
2022/04/01 00:53:04;;;;;;;13.57;10.67;;;0.80;99.90;;;;;;5096347;27;20039;-81
2022/04/01 00:55:43;;;;;;;;;;;;;;;;;;;;;
2022/04/01 00:58:26;;;;;;;19.67;13.33;;;0.80;99.90;;;;;;5110589;27;20051;-82
2022/04/01 01:01:31;;;;;;;18.92;12.68;;;0.80;99.90;;;;;;5111644;27;20027;-82
2022/04/01 01:04:22;;;;;;;19.37;12.90;;;0.80;99.90;;;;;;5109877;28;20031;-84
2022/04/01 01:07:01;;;;;;;21.40;14.17;;;0.80;99.90;;;;;;5109163;28;20050;-82
2022/04/01 01:09:33;;;;;;;26.07;15.57;;;0.80;99.90;;;;;;5079419;28;20032;-83
2022/04/01 01:12:01;;;;;;;22.47;13.87;;;0.80;99.90;;;;;;5113259;27;20054;-82
2022/04/01 01:14:33;;;;;;;23.50;15.10;;;0.80;99.90;;;;;;5077349;27;20501;-82
2022/04/01 01:17:01;;;;;;;;;;;0.80;99.90;;;;;;5063902;27;20047;-83
2022/04/01 01:19:35;;;;;;;22.63;14.90;;;0.80;99.90;;;;;;5079297;28;19915;-82
2022/04/01 01:22:02;;;;;;;26.50;15.87;;;0.80;99.90;;;;;;5077579;28;20039;-81
2022/04/01 01:24:41;;;;;;;24.43;14.47;;;0.70;99.90;;;;;;5074373;27;20039;-83
2022/04/01 01:27:09;;;;;;;22.10;14.40;;;0.70;99.90;;;;;;5093668;28;20402;-82
2022/04/01 01:29:38;;;;;;;32.07;18.37;;;0.80;99.90;;;;;;5113031;27;20035;-82
2022/04/01 01:32:11;;;;;;;24.37;14.37;;;0.70;99.90;;;;;;5077778;27;20032;-82
2022/04/01 01:34:44;;;;;;;24.10;15.27;;;0.70;99.90;;;;;;5096577;27;20054;-82
2022/04/01 01:37:10;;;;;;;20.13;13.60;;;0.70;99.90;;;;;;5094181;27;20495;-80
2022/04/01 01:39:38;;;;;;;22.87;14.90;;;0.80;99.90;;;;;;5074697;27;20043;-82
2022/04/01 01:42:07;;;;;;;21.23;13.97;;;0.70;99.90;;;;;;5062515;27;20035;-82
2022/04/01 01:44:35;;;;;;;16.93;12.07;;;0.70;99.90;;;;;;5110473;27;20032;-83
2022/04/01 01:47:03;;;;;;;18.00;12.17;;;0.70;99.90;;;;;;5075736;28;20383;-83
2022/04/01 01:49:35;;;;;;;18.90;12.73;;;0.70;99.90;;;;;;5083030;28;20031;-83
2022/04/01 01:54:50;;;;;;;15.60;10.77;;;0.70;99.90;;;;;;5091427;27;20047;-82
2022/04/01 01:57:23;;;;;;;24.80;14.20;;;0.70;99.90;;;;;;5074733;28;20047;-82
2022/04/01 01:59:55;;;;;;;16.90;11.77;;;0.70;99.90;;;;;;5090173;28;20036;-82
2022/04/01 02:02:22;;;;;;;30.13;18.13;;;0.70;99.90;;;;;;5092276;28;20035;-82
2022/04/01 02:04:49;;;;;;;17.47;11.57;;;0.70;99.90;;;;;;5107934;28;20042;-82
2022/04/01 02:07:16;;;;;;;22.87;13.17;;;0.70;99.90;;;;;;5092685;28;20135;-82
2022/04/01 02:09:43;;;;;;;22.83;13.00;;;0.70;99.90;;;;;;5090610;28;20035;-83
2022/04/01 02:12:10;;;;;;;22.07;14.37;;;0.70;99.90;;;;;;5111543;28;20050;-83
2022/04/01 02:14:37;;;;;;;18.33;11.87;;;0.70;99.90;;;;;;5077159;28;20046;-83
2022/04/01 02:17:04;;;;;;;25.43;15.40;;;0.70;99.90;;;;;;5091755;28;20410;-84
2022/04/01 02:19:34;;;;;;;23.90;14.53;;;0.70;99.90;;;;;;5107950;28;20035;-82
2022/04/01 02:22:08;;;;;;;12.50;9.13;;;0.60;99.90;;;;;;5094705;28;20046;-82
2022/04/01 02:24:37;;;;;;;18.40;12.63;;;0.70;99.90;;;;;;5096184;28;20035;-83
2022/04/01 02:27:10;;;;;;;19.53;12.03;;;0.70;99.90;;;;;;5094931;28;20039;-83
2022/04/01 02:29:46;;;;;;;23.37;14.53;;;0.70;99.90;;;;;;5116147;27;20390;-84
2022/04/01 02:32:48;;;;;;;19.07;12.70;;;0.70;99.90;;;;;;5099610;28;20036;-84
2022/04/01 02:35:37;;;;;;;22.63;14.17;;;0.70;99.90;;;;;;5094818;27;20040;-83
2022/04/01 02:38:09;;;;;;;24.50;14.37;;;0.70;99.90;;;;;;5082870;28;20042;-85
2022/04/01 02:40:36;;;;;;;25.40;15.93;;;0.70;99.90;;;;;;5096209;28;20035;-85
2022/04/01 02:43:05;;;;;;;23.43;14.53;;;0.60;99.90;;;;;;5072264;27;21198;-83
2022/04/01 02:45:37;;;;;;;22.80;15.77;;;0.70;99.90;;;;;;5078468;28;20403;-83
2022/04/01 02:48:05;;;;;;;24.83;14.87;;;0.60;99.90;;;;;;5096768;28;20043;-84
2022/04/01 02:50:49;;;;;;;22.57;13.90;;;0.70;99.90;;;;;;5094610;28;20043;-83
2022/04/01 02:53:27;;;;;;;26.53;14.67;;;0.70;99.90;;;;;;5095969;28;20054;-83
2022/04/01 02:56:02;;;;;;;22.13;14.33;;;0.60;99.90;;;;;;5084804;28;20051;-85
2022/04/01 02:58:34;;;;;;;23.75;13.98;;;0.70;99.90;;;;;;5064288;27;20052;-84
2022/04/01 03:01:05;;;;;;;20.92;13.68;;;0.70;99.90;;;;;;5095834;28;20039;-84
2022/04/01 03:03:32;;;;;;;22.63;14.10;;;0.60;99.90;;;;;;5080293;27;20045;-82
2022/04/01 03:06:08;;;;;;;23.17;14.70;;;0.60;99.90;;;;;;5096402;27;20032;-86
2022/04/01 03:08:41;;;;;;;19.53;13.57;;;0.70;99.90;;;;;;5095296;27;20035;-87
2022/04/01 03:11:26;;;;;;;18.13;13.83;;;0.70;99.90;;;;;;5089136;27;20036;-87
2022/04/01 03:13:57;;;;;;;18.30;12.17;;;0.70;99.90;;;;;;5082538;28;20039;-85
2022/04/01 03:16:51;;;;;;;17.23;11.40;;;0.70;99.90;;;;;;5103748;27;20047;-85
2022/04/01 03:19:19;;;;;;;22.93;14.27;;;0.60;99.90;;;;;;5096474;28;20028;-84
2022/04/01 03:21:49;;;;;;;25.03;15.57;;;0.60;99.90;;;;;;5098959;28;20043;-85
2022/04/01 03:24:19;;;;;;;24.73;14.70;;;0.70;99.90;;;;;;5097279;28;20039;-84
2022/04/01 03:26:47;;;;;;;16.13;11.73;;;0.70;99.90;;;;;;5095898;28;20016;-85
2022/04/01 03:29:13;;;;;;;22.40;14.00;;;0.60;99.90;;;;;;5078756;28;20359;-85
2022/04/01 03:31:42;;;;;;;22.83;15.70;;;0.60;99.90;;;;;;5045516;28;20035;-85
2022/04/01 03:34:13;;;;;;;17.10;12.00;;;0.60;99.90;;;;;;5100708;28;20063;-84
2022/04/01 03:36:40;;;;;;;17.93;11.20;;;0.60;99.90;;;;;;5076335;27;20058;-84
2022/04/01 03:39:14;;;;;;;20.67;13.93;;;0.60;99.90;;;;;;5078418;27;20031;-84
2022/04/01 03:41:54;;;;;;;21.17;14.00;;;0.60;99.90;;;;;;5082250;28;20031;-85
2022/04/01 03:44:28;;;;;;;17.77;12.73;;;0.60;99.90;;;;;;5092520;28;20028;-84
2022/04/01 03:47:22;;;;;;;19.90;12.70;;;0.60;99.90;;;;;;5080961;28;20047;-84
2022/04/01 03:50:00;;;;;;;17.60;12.20;;;0.60;99.90;;;;;;5097365;27;20121;-84
2022/04/01 03:52:31;;;;;;;20.37;13.07;;;0.60;99.90;;;;;;5095451;28;20023;-85
2022/04/01 03:55:06;;;;;;;18.30;12.27;;;0.60;99.90;;;;;;5092768;28;20038;-85
2022/04/01 03:58:09;;;;;;;13.67;9.90;;;0.60;99.90;;;;;;5106456;28;20046;-85
2022/04/01 04:01:04;;;;;;;16.20;11.23;;;0.60;99.90;;;;;;5110345;28;20046;-84
2022/04/01 04:03:31;;;;;;;12.27;9.53;;;0.60;99.90;;;;;;5095510;28;20036;-84
2022/04/01 04:06:01;;;;;;;15.10;8.63;;;0.60;99.90;;;;;;5093941;28;20035;-84
2022/04/01 04:08:28;;;;;;;15.03;9.07;;;0.50;99.90;;;;;;5094963;27;20040;-84
2022/04/01 04:10:56;;;;;;;13.93;9.57;;;0.60;99.90;;;;;;5110976;27;20039;-84
2022/04/01 04:13:49;;;;;;;13.97;9.90;;;0.60;99.90;;;;;;5098193;28;20050;-83
2022/04/01 04:16:47;;;;;;;12.27;8.43;;;0.60;99.90;;;;;;5078286;28;20138;-84
2022/04/01 04:19:26;;;;;;;11.80;9.13;;;0.50;99.90;;;;;;5079764;28;20047;-86
2022/04/01 04:22:12;;;;;;;10.93;8.47;;;0.50;99.90;;;;;;5093366;28;20031;-81
2022/04/01 04:25:10;;;;;;;12.87;7.70;;;0.50;99.90;;;;;;5093873;28;20032;-87
2022/04/01 04:28:01;;;;;;;9.60;7.20;;;0.60;99.90;;;;;;5108405;27;20467;-83
2022/04/01 04:30:36;;;;;;;17.43;9.83;;;0.50;99.90;;;;;;5078629;27;20034;-86
2022/04/01 04:33:38;;;;;;;17.00;9.07;;;0.50;99.90;;;;;;5113982;27;20026;-85
2022/04/01 04:36:06;;;;;;;12.83;8.43;;;0.50;99.90;;;;;;5094373;28;20038;-85
2022/04/01 04:39:04;;;;;;;11.17;7.33;;;0.50;99.90;;;;;;5109443;27;20027;-83
2022/04/01 04:41:32;;;;;;;10.87;7.77;;;0.50;99.90;;;;;;5072876;28;20034;-83
2022/04/01 04:44:03;;;;;;;8.43;6.05;;;0.50;99.90;;;;;;5074095;27;20044;-81
2022/04/01 04:46:33;;;;;;;10.27;7.03;;;0.50;99.90;;;;;;5078237;28;20391;-83
2022/04/01 04:49:04;;;;;;;13.87;8.70;;;0.40;99.90;;;;;;5075254;28;20051;-85
2022/04/01 04:51:31;;;;;;;11.50;7.17;;;0.40;99.90;;;;;;5060122;28;20435;-83
2022/04/01 04:54:25;;;;;;;13.73;7.10;;;0.40;99.90;;;;;;5103104;28;20035;-85
2022/04/01 04:57:06;;;;;;;8.70;5.93;;;0.40;99.90;;;;;;5064607;28;20466;-83
2022/04/01 04:59:45;;;;;;;7.23;5.73;;;0.40;99.90;;;;;;5094009;28;20031;-82
2022/04/01 05:02:50;;;;;;;11.90;6.80;;;0.40;99.90;;;;;;5076190;27;20119;-83
2022/04/01 05:05:38;;;;;;;9.60;5.30;;;0.40;99.90;;;;;;5076155;27;20030;-84
2022/04/01 05:08:48;;;;;;;8.93;5.60;;;0.40;99.90;;;;;;5099828;27;20050;-82
2022/04/01 05:12:12;;;;;;;9.83;5.53;;;0.40;99.90;;;;;;5090419;27;20514;-84
2022/04/01 05:15:11;;;;;;;5.97;5.07;;;0.30;99.90;;;;;;5106939;27;20051;-83
2022/04/01 05:18:10;;;;;;;10.83;5.87;;;0.40;99.90;;;;;;5078021;28;20038;-83
2022/04/01 05:21:23;;;;;;;8.03;4.93;;;0.40;99.90;;;;;;5107038;27;20036;-83
2022/04/01 05:24:17;;;;;;;7.90;5.73;;;0.30;99.90;;;;;;5076096;28;20055;-83
2022/04/01 05:27:03;;;;;;;9.25;5.50;;;0.30;99.90;;;;;;5071538;28;20051;-83
2022/04/01 05:30:13;;;;;;;9.27;4.90;;;0.30;99.90;;;;;;5097240;28;20118;-83
2022/04/01 05:33:24;;;;;;;11.63;5.17;;;0.30;99.90;;;;;;5075321;28;20044;-83
2022/04/01 05:36:18;;;;;;;10.67;5.70;;;0.30;99.90;;;;;;5093885;28;20058;-82
2022/04/01 05:39:10;;;;;;;6.47;4.33;;;0.40;99.90;;;;;;5071650;28;20039;-82
2022/04/01 05:47:11;;;;;;;10.57;4.23;;;0.30;99.90;;;;;;5023183;27;20033;-82
2022/04/01 05:50:22;;;;;;;6.57;3.57;;;0.30;99.90;;;;;;5108731;27;20046;-81
2022/04/01 05:53:21;;;;;;;8.97;5.00;;;0.40;99.90;;;;;;5111858;27;20034;-82
2022/04/01 05:56:07;;;;;;;8.87;4.57;;;0.40;99.90;;;;;;5093990;28;20055;-82
2022/04/01 06:03:19;;;;;;;7.30;4.67;;;0.40;99.90;;;;;;5109026;27;20035;-82
2022/04/01 06:06:02;;;;;;;10.87;5.07;;;0.40;99.90;;;;;;5082854;28;20273;-77
2022/04/01 06:08:56;;;;;;;9.68;5.03;;;0.40;99.90;;;;;;5107163;27;20565;-78
2022/04/01 06:17:01;;;;;;;12.63;5.93;;;0.50;99.90;;;;;;5068357;28;20369;-82
2022/04/01 06:24:50;;;;;;;;;;;;;;;;;;;;;
2022/04/01 06:32:50;;;;;;;5.67;3.73;;;0.50;99.90;;;;;;4888204;29;20503;-84
2022/04/01 06:36:20;;;;;;;5.67;3.60;;;0.60;99.90;;;;;;4982396;28;20051;-84
2022/04/01 06:39:51;;;;;;;5.00;3.57;;;0.50;99.90;;;;;;5096387;28;20044;-83
2022/04/01 06:42:55;;;;;;;;;;;;;;;;;;;;;
2022/04/01 06:46:58;;;;;;;6.07;3.43;;;0.60;99.90;;;;;;5109412;28;20036;-83
2022/04/01 06:49:47;;;;;;;7.20;3.33;;;0.60;99.90;;;;;;5025863;28;20408;-84
2022/04/01 06:52:32;;;;;;;9.07;4.30;;;0.70;99.90;;;;;;5053094;28;20045;-83
2022/04/01 06:55:31;;;;;;;8.90;3.90;;;0.60;99.90;;;;;;5048321;28;20048;-83
2022/04/01 06:58:30;;;;;;;8.83;4.33;;;0.70;99.90;;;;;;5046470;28;20072;-83
2022/04/01 07:01:18;;;;;;;7.77;4.17;;;0.70;99.90;;;;;;5019543;28;20033;-83
2022/04/01 07:03:53;;;;;;;7.60;4.57;;;0.70;99.90;;;;;;5054443;28;20530;-83
2022/04/01 07:06:22;;;;;;;8.47;3.87;;;0.70;99.90;;;;;;5026860;28;20028;-83
2022/04/01 07:08:59;;;;;;;7.23;3.90;;;0.70;99.90;;;;;;5035624;28;21053;-83
2022/04/01 07:12:55;;;;;;;8.97;4.23;;;0.80;99.90;;;;;;5050700;28;20399;-83
2022/04/01 07:18:57;;;;;;;5.75;3.75;;;0.80;99.90;;;;;;5041420;28;20040;-83
2022/04/01 07:22:35;;;;;;;9.53;4.20;;;0.80;99.90;;;;;;5071569;28;20040;-84
2022/04/01 07:25:36;;;;;;;8.27;4.60;;;0.90;99.90;;;;;;5025161;28;20041;-83
2022/04/01 07:28:42;;;;;;;5.77;3.67;;;0.90;99.90;;;;;;5089319;27;20047;-83
2022/04/01 07:34:31;;;;;;;;;;;;;;;;;;;;;
2022/04/01 07:38:26;;;;;;;8.10;4.23;;;0.90;99.90;;;;;;5097713;27;20031;-84
2022/04/01 07:46:30;;;;;;;6.63;3.33;;;1.00;99.90;;;;;;5002450;28;20041;-84
2022/04/01 07:50:03;;;;;;;7.73;2.93;;;1.10;99.90;;;;;;5035271;28;20394;-84
2022/04/01 07:53:11;;;;;;;5.87;2.73;;;1.20;99.90;;;;;;5078317;28;20048;-84
2022/04/01 07:55:48;;;;;;;4.97;2.60;;;1.20;99.90;;;;;;5056573;28;20044;-83
2022/04/01 07:59:24;;;;;;;4.30;1.57;;;1.30;99.90;;;;;;5067519;28;20611;-83
2022/04/01 08:01:57;;;;;;;6.13;2.33;;;1.40;99.90;;;;;;5017107;28;20048;-83
2022/04/01 08:04:46;;;;;;;4.17;2.83;;;1.40;99.90;;;;;;5040000;28;20496;-82
2022/04/01 08:07:47;;;;;;;3.23;1.97;;;1.50;99.90;;;;;;5015825;28;20700;-82
2022/04/01 08:10:44;;;;;;;4.80;1.20;;;1.60;99.90;;;;;;5047447;28;20044;-83
2022/04/01 08:13:33;;;;;;;5.17;1.97;;;1.60;99.90;;;;;;5060602;28;20518;-82
2022/04/01 08:16:56;;;;;;;2.83;1.30;;;1.60;99.90;;;;;;5035776;28;20059;-82
2022/04/01 08:19:45;;;;;;;2.93;1.57;;;1.50;99.90;;;;;;5054849;28;20551;-83
2022/04/01 08:22:32;;;;;;;;;;;1.50;99.90;;;;;;5035212;28;20431;-82
2022/04/01 08:25:06;;;;;;;5.07;1.97;;;1.50;99.90;;;;;;5052289;28;20119;-81
2022/04/01 08:27:47;;;;;;;4.20;1.17;;;1.50;99.90;;;;;;5032384;28;20033;-82
2022/04/01 08:30:31;;;;;;;5.10;1.30;;;1.60;99.90;;;;;;5026939;28;20036;-82
2022/04/01 08:33:20;;;;;;;4.27;1.50;;;1.70;99.90;;;;;;5051895;28;20047;-83
2022/04/01 08:35:58;;;;;;;4.13;1.00;;;1.70;99.90;;;;;;5031745;28;20414;-82
2022/04/01 08:38:25;;;;;;;2.60;1.30;;;1.80;99.90;;;;;;5021154;28;20386;-82
2022/04/01 08:40:52;;;;;;;2.00;1.00;;;1.90;99.90;;;;;;5051939;28;20518;-82
2022/04/01 08:43:26;;;;;;;5.13;1.10;;;1.90;99.90;;;;;;5014124;28;20045;-82
2022/04/01 08:45:55;;;;;;;5.70;0.97;;;2.00;99.90;;;;;;5063275;28;20755;-81
2022/04/01 08:48:25;;;;;;;3.23;1.33;;;2.00;99.90;;;;;;5066925;28;20033;-81
2022/04/01 08:50:52;;;;;;;2.33;0.90;;;2.10;99.90;;;;;;5046546;28;20048;-81
2022/04/01 08:53:18;;;;;;;3.10;0.87;;;2.20;99.90;;;;;;5019185;28;20048;-81
2022/04/01 08:55:50;;;;;;;2.50;0.50;;;2.20;99.90;;;;;;5035776;28;20157;-82
2022/04/01 08:58:19;;;;;;;1.40;0.70;;;2.30;99.90;;;;;;5069312;28;20475;-81
2022/04/01 09:00:51;;;;;;;1.90;0.90;;;2.30;99.90;;;;;;5064331;28;20047;-81
2022/04/01 09:03:21;;;;;;;2.75;0.88;;;2.30;99.90;;;;;;5109851;27;20466;-82
2022/04/01 09:05:56;;;;;;;6.37;0.90;;;2.40;99.90;;;;;;5092018;28;20047;-82
2022/04/01 09:08:35;;;;;;;5.20;1.37;;;2.50;99.90;;;;;;5090574;27;20042;-82
2022/04/01 09:11:19;;;;;;;3.70;1.10;;;2.60;99.90;;;;;;5091448;27;20040;-80
2022/04/01 09:13:47;;;;;;;4.50;1.17;;;2.70;99.90;;;;;;5093022;27;20035;-76
2022/04/01 09:16:28;;;;;;;9.33;4.77;;;2.80;99.90;;;;;;5107631;27;21079;-78
2022/04/01 09:18:58;;;;;;;9.83;5.43;;;2.90;99.90;;;;;;5092316;27;20035;-78
2022/04/01 09:21:28;;;;;;;12.10;4.43;;;3.00;99.90;;;;;;5108140;27;20027;-78
2022/04/01 09:23:55;;;;;;;3.63;1.03;;;3.20;99.90;;;;;;5089402;27;20470;-78
2022/04/01 09:26:29;;;;;;;3.30;1.07;;;3.30;99.90;;;;;;5091283;28;20734;-79
2022/04/01 09:28:56;;;;;;;4.97;1.30;;;3.30;99.90;;;;;;5091305;27;20194;-78
2022/04/01 09:31:25;;;;;;;6.23;2.90;;;3.30;99.90;;;;;;5074543;28;20043;-78
2022/04/01 09:33:54;;;;;;;5.73;3.43;;;3.40;99.90;;;;;;5073851;28;20512;-78
2022/04/01 09:36:36;;;;;;;10.53;4.87;;;3.40;99.90;;;;;;5087768;27;20054;-77
2022/04/01 09:39:18;;;;;;;4.63;1.55;;;3.40;99.90;;;;;;5107445;27;20034;-76
2022/04/01 09:42:09;;;;;;;2.63;1.60;;;3.40;99.90;;;;;;5086577;27;20036;-76
2022/04/01 09:44:45;;;;;;;5.37;1.83;;;3.50;99.90;;;;;;5106920;27;20032;-78
2022/04/01 09:47:19;;;;;;;7.47;3.53;;;3.60;99.90;;;;;;5109187;27;20028;-76
2022/04/01 09:49:54;;;;;;;9.37;4.30;;;3.70;99.90;;;;;;5071497;27;20047;-78
2022/04/01 09:52:34;;;;;;;8.30;2.30;;;3.70;99.90;;;;;;5108287;27;20023;-77
2022/04/01 09:55:04;;;;;;;6.00;2.63;;;3.60;99.90;;;;;;5078818;27;20047;-76
2022/04/01 09:57:33;;;;;;;9.07;4.90;;;3.50;99.90;;;;;;5091224;27;20044;-78
2022/04/01 10:00:05;;;;;;;8.37;2.70;;;3.60;99.90;;;;;;5108957;27;20035;-76
2022/04/01 10:02:41;;;;;;;4.23;2.30;;;3.60;99.90;;;;;;5108540;27;20027;-79
2022/04/01 10:05:20;;;;;;;5.90;3.17;;;3.60;99.90;;;;;;5089547;28;20356;-76
2022/04/01 10:07:50;;;;;;;6.00;2.97;;;3.60;99.90;;;;;;5091230;28;20065;-77
2022/04/01 10:10:22;;;;;;;7.97;2.50;;;3.70;99.90;;;;;;5109008;27;20047;-78
2022/04/01 10:13:18;;;;;;;4.83;2.57;;;3.80;99.90;;;;;;5108099;27;20031;-79
2022/04/01 10:16:07;;;;;;;;;;;3.90;99.90;;;;;;5097769;28;20034;-75
2022/04/01 10:18:47;;;;;;;7.80;2.67;;;3.90;99.90;;;;;;5110006;28;19913;-77
2022/04/01 10:21:34;;;;;;;5.47;2.97;;;3.90;99.90;;;;;;5109132;28;20032;-77
2022/04/01 10:24:13;;;;;;;4.77;2.70;;;3.90;99.90;;;;;;5097350;28;20048;-76
2022/04/01 10:27:09;;;;;;;6.07;3.10;;;3.90;99.90;;;;;;5092624;28;20390;-76
2022/04/01 10:29:36;;;;;;;6.13;3.03;;;3.90;99.90;;;;;;5108172;28;20027;-76
2022/04/01 10:32:30;;;;;;;7.37;2.90;;;3.80;99.90;;;;;;5093169;28;20031;-77
2022/04/01 10:34:58;;;;;;;;;;;3.90;99.90;;;;;;5075019;28;20029;-77
2022/04/01 10:37:26;;;;;;;4.80;2.53;;;3.90;99.90;;;;;;5088249;28;19915;-76
2022/04/01 10:40:19;;;;;;;5.03;3.13;;;3.90;99.90;;;;;;5077310;28;20028;-75
2022/04/01 10:42:47;;;;;;;;;;;3.80;99.90;;;;;;5086629;28;20379;-75
2022/04/01 10:45:16;;;;;;;4.27;2.87;;;3.80;99.90;;;;;;5110563;27;19903;-75
2022/04/01 10:53:46;;;;;;;7.83;2.87;;;3.60;99.90;;;;;;5082401;27;20046;-78
2022/04/01 10:56:25;;;;;;;5.73;2.70;;;3.50;99.90;;;;;;5115256;27;20047;-77
2022/04/01 10:59:04;;;;;;;5.03;3.33;;;3.50;99.90;;;;;;5076916;27;20044;-77
2022/04/01 11:01:32;;;;;;;7.20;4.63;;;3.70;99.90;;;;;;5111126;27;20043;-77
2022/04/01 11:04:08;;;;;;;5.77;3.17;;;3.80;99.90;;;;;;5095184;27;20035;-76
2022/04/01 11:07:03;;;;;;;7.03;4.27;;;4.00;99.90;;;;;;5111343;27;20497;-76
2022/04/01 11:09:46;;;;;;;7.17;3.43;;;4.20;99.90;;;;;;5085309;27;20043;-80
2022/04/01 11:12:19;;;;;;;7.87;3.30;;;4.30;99.90;;;;;;5111768;27;20135;-78
2022/04/01 11:17:47;;;;;;;10.20;3.87;;;4.30;99.90;;;;;;5094769;28;20051;-81
2022/04/01 11:20:17;;;;;;;6.93;3.55;;;4.40;99.90;;;;;;5081134;27;20031;-82
2022/04/01 11:23:00;;;;;;;4.83;2.70;;;4.30;99.90;;;;;;5077394;27;20028;-80
2022/04/01 11:25:32;;;;;;;6.00;4.27;;;4.30;99.90;;;;;;5095865;28;20519;-80
2022/04/01 11:28:01;;;;;;;6.55;2.88;;;4.10;99.90;;;;;;5094918;28;20043;-80
2022/04/01 11:30:30;;;;;;;6.90;3.27;;;4.10;99.90;;;;;;5078895;27;20046;-81
2022/04/01 11:33:01;;;;;;;5.87;2.80;;;4.10;99.90;;;;;;5109340;27;20390;-80
2022/04/01 11:35:49;;;;;;;7.40;3.67;;;4.10;99.90;;;;;;5109145;27;20050;-80
2022/04/01 11:38:18;;;;;;;5.03;3.63;;;4.00;99.90;;;;;;5111487;27;20032;-78
2022/04/01 11:40:56;;;;;;;6.17;3.47;;;4.00;99.90;;;;;;5073585;28;20048;-76
2022/04/01 11:43:28;;;;;;;8.43;3.57;;;3.90;99.90;;;;;;5073672;28;20044;-77
2022/04/01 11:46:22;;;;;;;6.60;3.80;;;3.80;99.90;;;;;;5059674;28;20043;-77
2022/04/01 11:49:03;;;;;;;6.60;4.00;;;3.80;99.90;;;;;;5073125;28;20054;-77
2022/04/01 11:51:45;;;;;;;6.43;3.13;;;3.90;99.90;;;;;;5070551;28;20440;-77
2022/04/01 11:54:17;;;;;;;8.80;3.93;;;4.00;99.90;;;;;;5055147;28;20047;-78
2022/04/01 11:56:51;;;;;;;6.37;4.57;;;4.00;99.90;;;;;;5073656;28;20067;-78
2022/04/01 11:59:25;;;;;;;6.70;4.67;;;4.10;99.90;;;;;;5092057;28;20024;-78
2022/04/01 12:02:10;;;;;;;7.70;3.90;;;4.20;99.90;;;;;;5058692;28;20044;-80
2022/04/01 12:04:51;;;;;;;5.53;3.73;;;4.40;99.90;;;;;;5066896;28;20363;-79
2022/04/01 12:11:10;;;;;;;6.80;4.47;;;4.80;99.90;;;;;;5039850;28;20599;-78
2022/04/01 12:16:45;;;;;;;5.80;4.70;;;4.70;99.90;;;;;;5073593;28;20059;-79
2022/04/01 12:19:17;;;;;;;7.33;3.87;;;4.70;99.90;;;;;;5072744;28;20032;-77
2022/04/01 12:21:50;;;;;;;7.40;4.30;;;4.70;99.90;;;;;;5071683;28;20038;-76
2022/04/01 12:24:20;;;;;;;5.63;4.15;;;4.70;99.90;;;;;;5053293;28;20379;-79
2022/04/01 12:26:50;;;;;;;6.63;4.67;;;4.80;99.90;;;;;;5065271;28;20044;-79
2022/04/01 12:29:28;;;;;;;6.23;4.00;;;4.90;99.90;;;;;;5066715;28;20047;-78
2022/04/01 12:31:57;;;;;;;4.67;3.60;;;4.90;99.90;;;;;;5095256;27;20428;-79
2022/04/01 12:34:26;;;;;;;5.90;3.57;;;4.90;99.90;;;;;;5109911;27;20031;-78
2022/04/01 12:37:06;;;;;;;8.03;4.37;;;4.90;99.90;;;;;;5113720;27;20042;-78
2022/04/01 12:39:39;;;;;;;5.70;3.47;;;4.90;99.90;;;;;;5095070;27;20040;-78
2022/04/01 12:42:08;;;;;;;4.90;3.60;;;4.80;99.90;;;;;;5059223;27;20044;-79
2022/04/01 12:44:39;;;;;;;5.72;3.65;;;4.80;99.90;;;;;;5099239;27;20040;-80
2022/04/01 12:47:06;;;;;;;6.63;3.80;;;4.70;99.90;;;;;;5107538;27;20468;-80
2022/04/01 12:49:34;;;;;;;8.53;4.00;;;4.60;99.90;;;;;;5087331;27;20397;-80
2022/04/01 12:52:04;;;;;;;5.70;3.50;;;4.60;99.90;;;;;;5083862;27;20028;-80
2022/04/01 12:54:33;;;;;;;7.07;3.17;;;4.60;99.90;;;;;;5100255;27;20032;-81
2022/04/01 12:57:11;;;;;;;7.20;4.07;;;4.60;99.90;;;;;;5073577;28;20565;-81
2022/04/01 12:59:40;;;;;;;6.85;4.05;;;4.70;99.90;;;;;;5070042;28;20059;-83
2022/04/01 13:02:14;;;;;;;5.60;3.13;;;4.90;99.90;;;;;;5051802;27;20040;-81
2022/04/01 13:04:49;;;;;;;5.20;3.40;;;5.20;99.90;;;;;;5107166;27;20410;-91
2022/04/01 13:07:32;;;;;;;5.43;3.72;;;5.60;99.90;;;;;;5089988;28;20036;-80
2022/04/01 13:10:13;;;;;;;7.35;3.13;;;5.80;99.90;;;;;;5075719;27;20043;-82
2022/04/01 13:12:42;;;;;;;5.38;3.17;;;6.10;99.90;;;;;;5092445;28;20040;-81
2022/04/01 13:15:17;;;;;;;5.75;2.67;;;6.20;99.90;;;;;;5096431;27;20368;-80
2022/04/01 13:18:02;;;;;;;7.70;2.88;;;6.10;99.90;;;;;;5111078;27;20042;-83
2022/04/01 13:20:32;;;;;;;11.93;7.75;;;6.10;99.90;;;;;;5091802;28;20032;-86
2022/04/01 13:23:03;;;;;;;19.60;12.18;;;6.00;99.90;;;;;;5111758;27;20035;-81
2022/04/01 13:25:31;;;;;;;6.75;3.33;;;6.00;99.90;;;;;;5113214;27;20028;-81
2022/04/01 13:27:58;;;;;;;8.67;5.50;;;6.00;99.90;;;;;;5062772;27;20040;-86
2022/04/01 13:30:25;;;;;;;8.70;4.55;;;6.00;99.90;;;;;;5091259;28;20043;-87
2022/04/01 13:32:51;;;;;;;6.00;3.05;;;6.00;99.90;;;;;;5080187;27;20031;-88
2022/04/01 13:35:18;;;;;;;4.70;2.88;;;6.00;99.90;;;;;;5119732;27;20483;-91
2022/04/01 13:37:45;;;;;;;4.78;2.78;;;5.90;99.90;;;;;;5074858;27;20036;-91
2022/04/01 13:40:14;;;;;;;3.58;2.35;;;5.90;99.90;;;;;;5075436;28;20034;-88
2022/04/01 13:42:41;;;;;;;6.20;3.20;;;5.90;99.90;;;;;;5066548;27;20027;-81
2022/04/01 13:45:10;;;;;;;19.52;10.50;;;5.80;99.90;;;;;;5089669;27;20042;-81
2022/04/01 13:47:36;;;;;;;6.03;3.35;;;5.70;99.90;;;;;;5107384;27;20035;-78
2022/04/01 13:50:06;;;;;;;3.08;2.10;;;5.60;99.90;;;;;;5091083;28;20032;-82
2022/04/01 13:52:33;;;;;;;3.38;1.70;;;5.60;99.90;;;;;;5092562;27;20044;-81
2022/04/01 13:55:00;;;;;;;4.65;1.95;;;5.40;99.90;;;;;;5072807;27;20031;-81
2022/04/01 13:57:26;;;;;;;8.45;2.00;;;5.30;99.90;;;;;;5091149;28;20716;-82
2022/04/01 13:59:55;;;;;;;6.10;1.95;;;5.20;99.90;;;;;;5093640;28;20027;-81
2022/04/01 14:02:22;;;;;;;3.25;2.10;;;5.30;99.90;;;;;;5091649;28;20043;-80
2022/04/01 14:04:49;;;;;;;3.45;2.10;;;5.30;99.90;;;;;;5089789;28;20032;-79
2022/04/01 14:07:16;;;;;;;5.93;2.35;;;5.40;99.90;;;;;;5090541;28;20036;-80
2022/04/01 14:09:45;;;;;;;3.67;2.08;;;5.70;99.90;;;;;;5094208;28;20141;-90
2022/04/01 14:12:13;;;;;;;3.38;1.75;;;5.90;99.90;;;;;;5094526;28;20051;-84
2022/04/01 14:14:40;;;;;;;3.28;1.30;;;6.00;99.90;;;;;;5068196;28;20047;-88
2022/04/01 14:17:07;;;;;;;5.07;1.27;;;6.10;99.90;;;;;;5057847;28;20042;-88
2022/04/01 14:19:34;;;;;;;4.25;1.25;;;6.10;99.90;;;;;;5098984;28;20028;-90
2022/04/01 14:22:02;;;;;;;3.80;1.40;;;6.20;99.90;;;;;;5074338;28;20038;-83
2022/04/01 14:24:29;;;;;;;4.03;1.60;;;6.20;99.90;;;;;;5101995;28;20027;-86
2022/04/01 14:27:04;;;;;;;4.40;2.05;;;6.20;99.90;;;;;;5072236;28;20031;-84
2022/04/01 14:32:19;;;;;;;5.03;2.08;;;6.00;99.90;;;;;;5073129;28;20466;-87
2022/04/01 14:34:49;;;;;;;6.03;2.33;;;6.00;99.90;;;;;;5064629;28;20046;-89
2022/04/01 14:37:15;;;;;;;4.45;1.95;;;6.00;99.90;;;;;;5077186;28;20051;-88
2022/04/01 14:39:46;;;;;;;2.13;1.20;;;6.00;99.90;;;;;;5092624;28;20055;-89
2022/04/01 14:42:29;;;;;;;5.13;1.20;;;5.90;99.90;;;;;;5108221;28;20034;-86
2022/04/01 14:44:59;;;;;;;3.28;0.90;;;5.80;99.90;;;;;;5105339;28;20040;-82
2022/04/01 14:47:26;;;;;;;2.72;0.82;;;5.60;99.90;;;;;;5091774;28;20032;-86
2022/04/01 14:49:55;;;;;;;3.13;0.70;;;5.50;99.90;;;;;;5092158;28;20486;-85
2022/04/01 14:52:25;;;;;;;3.07;1.57;;;5.40;99.90;;;;;;5075882;28;20040;-87